Terminal Aerodrome Forecast
Issued by NWS Milwaukee/Sullivan, WI

Home | Current Version | Previous Version | Text Only | Print | Product List | Glossary On
Versions: 1 2 3 4 5 6 7 8 9 10 11 12 13 14 15 16 17 18 19 20 21 22 23 24 25 26 27 28 29 30 31 32 33 34 35 36 37 38 39 40 41 42 43 44 45 46 47 48 49 50
000
FTUS43 KMKX 222333
TAFMKE
TAF
KMKE 222333Z 2300/2406 16008KT P6SM VCSH SCT040 BKN090
     FM230100 16008KT P6SM VCSH SCT040 BKN060
     FM230900 23006KT P6SM BKN035
     FM231100 22005KT 3SM BR VCSH BKN020
     FM231600 16006KT 4SM BR VCSH OVC008
     FM231900 12007KT 3SM -SHRA BR OVC020
     FM232200 09006KT 2SM -SHRA BR OVC035
     FM240300 04006KT 4SM -SHRA OVC020=

USA.gov is the U.S. government's official web portal to all federal, state and local government web resources and services.